Latest Weather Observations for Mandora

IDW60801

Issued at 2:35 pm WST Wednesday 3 September 2014 (issued every 30 minutes, with the page automatically refreshed every 10 minutes)

About weather observations | Map of weather stations | Latest weather observations for WA | Other Formats
Station Details ID: 004019 Name: MANDORA Lat: -19.74 Lon: 120.84 Height: 7.5 m
Data from the previous 72 hours. | See also: Recent months at Mandora
Date/Time
WST
Temp
°C
App
Temp
°C
Dew
Point
Rel
Hum
%
Delta-T
°C
Wind Press
QNH
hPa
Press
MSL
hPa
Rain
since 9 am
mm
Dir
 
Spd
km/h
Gust
km/h
Spd
kts
Gust
kts
03/02:30pm 31.8 - - - - NW 20 28 11 15 1012.1 - 0.0
03/02:00pm 31.4 - - - - NNW 22 41 12 22 1012.4 - 0.0
03/01:30pm 34.2 - - - - NNW 22 39 12 21 1012.5 - 0.0
03/01:00pm 36.6 - - - - N 19 28 10 15 1012.6 - 0.0
03/12:30pm 37.6 - - - - NNE 9 17 5 9 1013.0 - 0.0
03/12:00pm 37.7 - - - - ENE 11 20 6 11 1013.5 1013.5 0.0
03/11:30am 36.0 - - - - E 9 17 5 9 1013.9 - 0.0
03/11:00am 36.0 - - - - ENE 9 19 5 10 1014.5 - 0.0
03/10:30am 34.4 - - - - ESE 11 20 6 11 1015.0 - 0.0
03/10:00am 34.0 - - - - E 11 17 6 9 1015.6 - 0.0
03/09:30am 32.2 - - - - ESE 11 20 6 11 1015.9 - 0.0
03/09:00am 29.6 - - - - ESE 15 22 8 12 1016.2 1016.2 0.0
03/08:30am 26.8 - - - - SE 13 20 7 11 1016.2 - 0.0
03/08:00am 24.2 - - - - SE 7 13 4 7 1016.2 - 0.0
03/07:30am 20.0 - - - - SSE 7 11 4 6 1016.3 - 0.0
03/07:24am 18.5 - - - - S 6 9 3 5 1016.2 - 0.0
03/07:00am 13.4 - - - - SSE 9 11 5 6 1016.1 - 0.0
03/06:30am 10.7 - - - - ESE 11 15 6 8 1016.1 - 0.0
03/06:00am 9.7 - - - - E 7 9 4 5 1015.9 1015.9 0.0
03/05:30am 8.0 - - - - S 6 7 3 4 1015.5 - 0.0
03/05:00am 9.1 - - - - ENE 2 6 1 3 1015.4 - 0.0
03/04:30am 8.2 - - - - ENE 6 7 3 4 1015.3 - 0.0
03/04:00am 8.7 - - - - ENE 7 9 4 5 1015.1 - 0.0
03/03:30am 10.0 - - - - E 7 9 4 5 1014.9 - 0.0
03/03:00am 10.6 - - - - NE 9 11 5 6 1014.7 1014.7 0.0
03/02:30am 13.7 - - - - SSE 9 13 5 7 1014.6 - 0.0
03/02:00am 11.3 - - - - SSW 9 11 5 6 1014.5 - 0.0
03/01:30am 11.2 - - - - CALM 0 0 0 0 1014.6 - 0.0
03/01:00am 12.2 - - - - S 9 13 5 7 1014.9 - 0.0
03/12:30am 12.3 - - - - SW 6 9 3 5 1015.0 - 0.0
03/12:00am 12.2 - - - - SSW 9 11 5 6 1015.1 1015.1 0.0
 
Date/Time
WST
Temp
°C
App
Temp
°C
Dew
Point
Rel
Hum
%
Delta-T
°C
Wind Press
QNH
hPa
Press
MSL
hPa
Rain
since 9 am
mm
Dir
 
Spd
km/h
Gust
km/h
Spd
kts
Gust
kts
02/11:30pm 13.0 - - - - S 7 9 4 5 1015.3 - 0.0
02/11:00pm 14.7 - - - - SSW 4 9 2 5 1015.2 - 0.0
02/10:30pm 18.4 - - - - SSW 13 13 7 7 1015.3 - 0.0
02/10:00pm 19.2 - - - - S 11 13 6 7 1015.4 - 0.0
02/09:30pm 19.1 - - - - SSW 11 13 6 7 1015.4 - 0.0
02/09:00pm 17.6 - - - - SSW 11 13 6 7 1015.3 1015.3 0.0
02/08:30pm 19.8 - - - - SW 13 15 7 8 1015.1 - 0.0
02/08:00pm 20.3 - - - - SW 11 13 6 7 1014.9 - 0.0
02/07:30pm 20.8 - - - - SW 13 13 7 7 1014.3 - 0.0
02/07:00pm 21.3 - - - - WSW 11 13 6 7 1014.1 - 0.0
02/06:30pm 22.2 - - - - WSW 11 11 6 6 1013.6 - 0.0
02/06:00pm 24.5 - - - - W 11 13 6 7 1013.5 1013.5 0.0
02/05:30pm 27.9 - - - - W 9 15 5 8 1013.2 - 0.0
02/05:00pm 29.3 - - - - WNW 11 19 6 10 1013.0 - 0.0
02/04:30pm 30.6 - - - - NW 13 20 7 11 1012.8 - 0.0
02/04:00pm 31.8 - - - - NW 15 22 8 12 1012.6 - 0.0
02/03:30pm 33.0 - - - - NW 19 26 10 14 1012.5 - 0.0
02/03:00pm 33.8 - - - - NNW 17 28 9 15 1012.5 1012.5 0.0
02/02:30pm 34.2 - - - - NNW 19 26 10 14 1012.6 - 0.0
02/02:00pm 34.3 - - - - NNW 17 24 9 13 1013.0 - 0.0
02/01:30pm 34.3 - - - - NNW 19 24 10 13 1013.4 - 0.0
02/01:00pm 35.0 - - - - N 19 24 10 13 1013.7 - 0.0
02/12:30pm 35.2 - - - - N 17 26 9 14 1014.0 - 0.0
02/12:00pm 37.3 - - - - NE 13 24 7 13 1014.5 1014.5 0.0
02/11:30am 35.9 - - - - ENE 17 24 9 13 1015.1 - 0.0
02/11:00am 35.5 - - - - ENE 13 22 7 12 1015.5 - 0.0
02/10:30am 34.4 - - - - E 13 17 7 9 1016.0 - 0.0
02/10:00am 33.6 - - - - E 13 24 7 13 1016.3 - 0.0
02/09:30am 31.8 - - - - E 11 20 6 11 1016.6 - 0.0
02/09:00am 29.9 - - - - E 11 19 6 10 1016.5 1016.5 0.0
02/08:30am 26.8 - - - - E 11 17 6 9 1016.5 - 0.0
02/08:00am 24.2 - - - - ESE 15 20 8 11 1016.4 - 0.0
02/07:30am 20.9 - - - - SE 9 15 5 8 1016.1 - 0.0
02/07:00am 17.6 - - - - SE 9 13 5 7 1015.9 - 0.0
02/06:53am 16.4 - - - - SE 9 13 5 7 1015.9 - 0.0
02/06:30am 11.3 - - - - SE 11 13 6 7 1015.6 - 0.0
02/06:00am 8.6 - - - - SE 9 11 5 6 1015.4 1015.4 0.0
02/05:30am 8.5 - - - - SSE 7 9 4 5 1015.0 - 0.0
02/05:00am 9.1 - - - - S 7 11 4 6 1014.9 - 0.0
02/04:30am 9.7 - - - - SE 7 9 4 5 1014.6 - 0.0
02/04:00am 11.9 - - - - SE 9 11 5 6 1014.2 - 0.0
02/03:30am 12.3 - - - - ESE 7 9 4 5 1014.2 - 0.0
02/03:00am 15.9 - - - - SSE 11 15 6 8 1014.1 1014.1 0.0
02/02:30am 16.7 - - - - S 11 15 6 8 1014.1 - 0.0
02/02:00am 16.7 - - - - S 13 15 7 8 1014.2 - 0.0
02/01:30am 15.4 - - - - S 13 15 7 8 1014.4 - 0.0
02/01:00am 11.1 - - - - S 9 11 5 6 1014.6 - 0.0
02/12:30am 11.9 - - - - SW 6 9 3 5 1014.9 - 0.0
02/12:00am 13.4 - - - - SSW 6 7 3 4 1015.0 1015.0 0.0
 
Date/Time
WST
Temp
°C
App
Temp
°C
Dew
Point
Rel
Hum
%
Delta-T
°C
Wind Press
QNH
hPa
Press
MSL
hPa
Rain
since 9 am
mm
Dir
 
Spd
km/h
Gust
km/h
Spd
kts
Gust
kts
01/11:30pm 16.8 - - - - S 9 13 5 7 1015.2 - 0.0
01/11:00pm 18.3 - - - - S 13 15 7 8 1015.1 - 0.0
01/10:30pm 18.6 - - - - S 13 19 7 10 1015.2 - 0.0
01/10:00pm 17.7 - - - - S 11 15 6 8 1015.1 - 0.0
01/09:30pm 19.1 - - - - S 11 15 6 8 1015.1 - 0.0
01/09:00pm 17.7 - - - - S 11 11 6 6 1015.0 1015.0 0.0
01/08:30pm 19.6 - - - - S 13 15 7 8 1014.8 - 0.0
01/08:00pm 20.3 - - - - SSW 11 11 6 6 1014.4 - 0.0
01/07:30pm 20.8 - - - - SW 11 15 6 8 1014.1 - 0.0
01/07:00pm 21.5 - - - - WSW 9 11 5 6 1013.6 - 0.0
01/06:30pm 21.6 - - - - WSW 11 13 6 7 1013.4 - 0.0
01/06:00pm 24.1 - - - - W 7 9 4 5 1013.2 1013.2 0.0
01/05:30pm 27.3 - - - - WNW 9 11 5 6 1013.1 - 0.0
01/05:00pm 29.9 - - - - WNW 11 15 6 8 1013.0 - 0.0
01/04:30pm 31.1 - - - - WNW 13 19 7 10 1012.8 - 0.0
01/04:00pm 31.8 - - - - WNW 13 19 7 10 1012.7 - 0.0
01/03:30pm 32.2 - - - - WNW 15 19 8 10 1012.7 - 0.0
01/03:00pm 32.4 - - - - WNW 15 24 8 13 1012.9 1012.9 0.0
01/02:30pm 32.7 - - - - WNW 17 24 9 13 1013.0 - 0.0
01/02:00pm 32.7 - - - - NW 17 24 9 13 1013.1 - 0.0
01/01:30pm 32.7 - - - - NW 17 22 9 12 1013.3 - 0.0
01/01:00pm 32.9 - - - - NW 15 20 8 11 1013.7 - 0.0
01/12:30pm 32.3 - - - - NNW 15 22 8 12 1014.2 - 0.0
01/12:00pm 32.2 - - - - NNW 15 20 8 11 1014.6 1014.6 0.0
01/11:30am 31.9 - - - - NNW 15 22 8 12 1014.9 - 0.0
01/11:00am 32.5 - - - - NNW 19 24 10 13 1015.0 - 0.0
01/10:30am 33.6 - - - - E 9 20 5 11 1015.5 - 0.0
01/10:00am 32.9 - - - - ESE 9 15 5 8 1015.7 - 0.0
01/09:30am 30.0 - - - - E 6 11 3 6 1016.0 - 0.0
01/09:00am 27.1 - - - - SSE 9 13 5 7 1015.9 1015.9 0.0
01/08:30am 24.4 - - - - ESE 6 9 3 5 1015.9 - 0.0
01/08:00am 21.6 - - - - E 7 11 4 6 1015.7 - 0.0
01/07:30am 17.4 - - - - ENE 6 9 3 5 1015.5 - 0.0
01/07:00am 12.6 - - - - ESE 7 11 4 6 1015.0 - 0.0
01/06:30am 9.8 - - - - E 11 13 6 7 1014.6 - 0.0
01/06:00am 9.3 - - - - E 11 13 6 7 1014.4 1014.4 0.0
01/05:30am 8.2 - - - - S 9 11 5 6 1014.1 - 0.0
01/05:00am 7.9 - - - - SE 7 9 4 5 1013.8 - 0.0
01/04:30am 9.1 - - - - SE 9 11 5 6 1013.6 - 0.0
01/04:00am 9.5 - - - - ESE 6 7 3 4 1013.4 - 0.0
01/03:30am 10.7 - - - - ESE 6 7 3 4 1013.4 - 0.0
01/03:00am 13.4 - - - - SE 7 9 4 5 1013.4 1013.4 0.0
01/02:30am 13.8 - - - - S 11 15 6 8 1013.3 - 0.0
01/02:00am 13.5 - - - - S 11 15 6 8 1013.4 - 0.0
01/01:30am 13.3 - - - - SSW 2 7 1 4 1013.6 - 0.0
01/01:00am 15.6 - - - - SSW 13 15 7 8 1013.6 - 0.0
01/12:30am 16.3 - - - - SSW 13 15 7 8 1013.8 - 0.0
01/12:00am 16.0 - - - - SSW 13 13 7 7 1013.9 1013.9 0.0
 
Date/Time
WST
Temp
°C
App
Temp
°C
Dew
Point
Rel
Hum
%
Delta-T
°C
Wind Press
QNH
hPa
Press
MSL
hPa
Rain
since 9 am
mm
Dir
 
Spd
km/h
Gust
km/h
Spd
kts
Gust
kts
31/11:30pm 16.2 - - - - S 13 15 7 8 1014.0 - 0.0
31/11:00pm 16.8 - - - - SSW 13 15 7 8 1013.9 - 0.0
31/10:30pm 16.9 - - - - S 13 15 7 8 1013.8 - 0.0
31/10:00pm 17.0 - - - - S 13 15 7 8 1013.8 - 0.0
31/09:30pm 16.7 - - - - SSW 11 13 6 7 1013.9 - 0.0
31/09:00pm 17.3 - - - - SSW 11 13 6 7 1013.7 1013.7 0.0
31/08:30pm 17.9 - - - - SSW 11 13 6 7 1013.6 - 0.0
31/08:00pm 18.8 - - - - WSW 11 11 6 6 1013.5 - 0.0
31/07:30pm 18.9 - - - - W 11 13 6 7 1013.3 - 0.0
31/07:00pm 19.3 - - - - W 9 11 5 6 1013.1 - 0.0
31/06:30pm 21.3 - - - - W 11 13 6 7 1012.8 - 0.0
31/06:00pm 22.9 - - - - W 9 11 5 6 1012.4 1012.4 0.0
31/05:30pm 27.0 - - - - WNW 9 13 5 7 1012.3 - 0.0
31/05:00pm 29.0 - - - - WNW 13 17 7 9 1012.3 - 0.0
31/04:30pm 30.1 - - - - WNW 15 20 8 11 1012.1 - 0.0
31/04:00pm 31.1 - - - - NW 17 22 9 12 1012.2 - 0.0
31/03:30pm 31.5 - - - - NW 17 24 9 13 1012.2 - 0.0
31/03:00pm 31.8 - - - - NW 20 26 11 14 1012.2 1012.2 0.0

Other Formats:

Comma delimited format used in spreadsheet applications
http://www.bom.gov.au/fwo/IDW60801/IDW60801.94200.axf

JavaScript Object Notation format (JSON) in row-major order
http://www.bom.gov.au/fwo/IDW60801/IDW60801.94200.json